Time;durP1;ratioP1;P1;durP2;ratioP2;P2;SDS_P1;SDS_P2;PMS_P1;PMS_P2;Temp;Humidity;BMP_temperature;BMP_pressure;BME280_temperature;BME280_humidity;BME280_pressure;Samples;Min_cycle;Max_cycle;Signal;HPM_P1;HPM_P2
2022/04/20 00:01:07;;;;;;;1.65;1.20;;;14.80;39.00;;;;;;4909259;29;20509;-83
2022/04/20 00:03:32;;;;;;;1.80;1.30;;;14.80;39.10;;;;;;4898033;29;20122;-83
2022/04/20 00:05:58;;;;;;;2.27;1.30;;;14.70;39.00;;;;;;4906784;29;20052;-84
2022/04/20 00:08:23;;;;;;;2.03;1.40;;;14.70;39.20;;;;;;4891155;29;20043;-84
2022/04/20 00:10:49;;;;;;;1.63;1.30;;;14.70;39.30;;;;;;4906544;29;20322;-84
2022/04/20 00:13:15;;;;;;;1.90;1.20;;;14.70;39.30;;;;;;4900028;29;20033;-84
2022/04/20 00:15:40;;;;;;;2.00;1.20;;;14.60;39.30;;;;;;4904483;29;20119;-84
2022/04/20 00:18:06;;;;;;;2.17;1.25;;;14.60;39.30;;;;;;4894534;29;20028;-84
2022/04/20 00:20:32;;;;;;;1.57;1.17;;;14.60;39.30;;;;;;4897284;29;20249;-84
2022/04/20 00:22:57;;;;;;;2.92;1.20;;;14.60;39.40;;;;;;4907247;29;20028;-83
2022/04/20 00:25:23;;;;;;;1.70;1.20;;;14.50;39.30;;;;;;4887087;29;20584;-83
2022/04/20 00:27:49;;;;;;;2.25;1.30;;;14.50;39.50;;;;;;4898667;29;20068;-84
2022/04/20 00:30:14;;;;;;;1.57;1.13;;;14.50;39.50;;;;;;4901669;29;20082;-83
2022/04/20 00:32:40;;;;;;;2.85;1.40;;;14.50;39.50;;;;;;4892440;29;20540;-83
2022/04/20 00:35:08;;;;;;;2.03;1.27;;;14.50;39.70;;;;;;4909264;29;20650;-84
2022/04/20 00:37:34;;;;;;;2.33;1.20;;;14.40;39.70;;;;;;4902800;29;20024;-83
2022/04/20 00:40:00;;;;;;;2.00;1.30;;;14.40;39.70;;;;;;4885632;29;20028;-84
2022/04/20 00:42:27;;;;;;;1.58;1.20;;;14.40;39.70;;;;;;4902423;29;20044;-83
2022/04/20 00:44:54;;;;;;;2.10;1.25;;;14.40;39.80;;;;;;4900800;29;20353;-84
2022/04/20 00:47:20;;;;;;;1.50;1.20;;;14.40;39.90;;;;;;4903013;29;20038;-84
2022/04/20 00:49:47;;;;;;;2.45;1.20;;;14.30;40.50;;;;;;4894488;29;20525;-84
2022/04/20 00:52:13;;;;;;;2.63;1.45;;;14.30;40.00;;;;;;4906196;29;20110;-84
2022/04/20 00:54:39;;;;;;;3.63;1.35;;;14.30;39.80;;;;;;4899358;29;20816;-84
2022/04/20 00:57:05;;;;;;;2.00;1.13;;;14.20;40.00;;;;;;4890502;29;20130;-83
2022/04/20 00:59:32;;;;;;;1.98;1.40;;;14.20;40.10;;;;;;4898716;29;20081;-84
2022/04/20 01:01:59;;;;;;;1.80;1.13;;;14.20;40.10;;;;;;4907685;29;20130;-84
2022/04/20 01:04:25;;;;;;;2.22;1.30;;;14.10;40.00;;;;;;4902068;29;20353;-83
2022/04/20 01:06:51;;;;;;;2.23;1.40;;;14.10;40.10;;;;;;4898841;29;20409;-83
2022/04/20 01:09:17;;;;;;;2.05;1.27;;;14.10;40.00;;;;;;4915069;29;20040;-84
2022/04/20 01:11:44;;;;;;;2.03;1.30;;;14.00;40.20;;;;;;4885815;29;20237;-83
2022/04/20 01:14:10;;;;;;;1.92;1.20;;;14.00;40.30;;;;;;4905878;29;20040;-84
2022/04/20 01:16:36;;;;;;;2.00;1.30;;;14.00;40.40;;;;;;4892783;29;20405;-84
2022/04/20 01:19:03;;;;;;;2.30;1.20;;;14.00;40.40;;;;;;4904704;29;20077;-84
2022/04/20 01:21:30;;;;;;;1.73;1.20;;;13.90;40.60;;;;;;4908009;29;20107;-84
2022/04/20 01:23:56;;;;;;;1.38;1.20;;;13.90;40.50;;;;;;4901852;29;20028;-83
2022/04/20 01:26:21;;;;;;;1.63;1.10;;;13.80;40.60;;;;;;4890386;29;20417;-84
2022/04/20 01:28:48;;;;;;;1.75;1.20;;;13.80;40.60;;;;;;4906017;29;20043;-84
2022/04/20 01:31:15;;;;;;;1.65;1.15;;;13.80;40.70;;;;;;4898735;29;20281;-84
2022/04/20 01:33:42;;;;;;;1.48;1.23;;;13.80;40.80;;;;;;4906298;29;20028;-84
2022/04/20 01:36:08;;;;;;;2.03;1.20;;;13.70;40.70;;;;;;4893204;29;20254;-83
2022/04/20 01:38:38;;;;;;;2.50;1.25;;;13.70;40.70;;;;;;4906869;29;20052;-83
2022/04/20 01:41:04;;;;;;;2.63;1.48;;;13.70;40.80;;;;;;4903931;29;20238;-84
2022/04/20 01:43:30;;;;;;;1.45;1.20;;;13.70;40.80;;;;;;4888577;29;20497;-83
2022/04/20 01:45:55;;;;;;;2.37;1.40;;;13.60;40.80;;;;;;4898120;29;20459;-83
2022/04/20 01:48:21;;;;;;;2.25;1.40;;;13.60;40.90;;;;;;4939324;28;20043;-83
2022/04/20 01:53:31;;;;;;;1.55;1.13;;;13.50;41.10;;;;;;4910181;29;20044;-83
2022/04/20 01:55:59;;;;;;;2.33;1.30;;;13.40;41.00;;;;;;4906997;29;20362;-84
2022/04/20 01:58:24;;;;;;;1.75;1.33;;;13.50;41.20;;;;;;4894653;29;20036;-84
2022/04/20 02:00:50;;;;;;;2.13;1.30;;;13.40;41.30;;;;;;4905985;29;20098;-84
2022/04/20 02:03:15;;;;;;;1.80;1.13;;;13.40;41.30;;;;;;4893226;29;20032;-84
2022/04/20 02:05:41;;;;;;;1.70;1.20;;;13.40;41.30;;;;;;4908339;29;20441;-84
2022/04/20 02:08:07;;;;;;;2.43;1.10;;;13.30;41.30;;;;;;4899524;29;20214;-84
2022/04/20 02:10:32;;;;;;;1.80;1.17;;;13.30;41.30;;;;;;4908779;29;20512;-83
2022/04/20 02:12:58;;;;;;;2.87;1.33;;;13.20;41.40;;;;;;4887367;29;20295;-84
2022/04/20 02:15:23;;;;;;;2.00;1.40;;;13.20;41.30;;;;;;4908919;29;20063;-84
2022/04/20 02:17:49;;;;;;;2.45;1.42;;;13.20;41.60;;;;;;4931948;28;20351;-83
2022/04/20 02:20:15;;;;;;;1.87;1.20;;;13.20;41.60;;;;;;4898473;29;20048;-83
2022/04/20 02:22:40;;;;;;;2.15;1.40;;;13.10;41.50;;;;;;4889290;29;20059;-84
2022/04/20 02:25:07;;;;;;;1.80;1.30;;;13.10;41.80;;;;;;4905113;29;20259;-83
2022/04/20 02:27:33;;;;;;;1.92;1.30;;;13.10;41.80;;;;;;4905127;29;20048;-84
2022/04/20 02:29:59;;;;;;;2.27;1.40;;;13.00;41.80;;;;;;4887651;29;20040;-84
2022/04/20 02:32:24;;;;;;;2.17;1.15;;;13.00;41.90;;;;;;4910165;29;20059;-84
2022/04/20 02:34:50;;;;;;;2.63;1.20;;;12.90;41.90;;;;;;4901011;29;20036;-84
2022/04/20 02:37:16;;;;;;;3.15;1.30;;;12.90;41.90;;;;;;4889864;29;20044;-84
2022/04/20 02:39:43;;;;;;;1.85;1.30;;;12.90;42.00;;;;;;4910769;29;20044;-84
2022/04/20 02:42:09;;;;;;;2.70;1.57;;;12.80;42.10;;;;;;4907959;29;20289;-84
2022/04/20 02:44:36;;;;;;;2.50;1.27;;;12.80;42.20;;;;;;4908403;29;20075;-84
2022/04/20 02:47:03;;;;;;;1.55;1.30;;;12.80;42.20;;;;;;4888547;29;20247;-84
2022/04/20 02:49:29;;;;;;;2.10;1.10;;;12.70;42.20;;;;;;4903435;29;20554;-84
2022/04/20 02:51:55;;;;;;;1.67;1.30;;;12.70;42.30;;;;;;4895888;29;20028;-84
2022/04/20 02:54:20;;;;;;;1.90;1.33;;;12.70;42.40;;;;;;4902868;29;20039;-84
2022/04/20 02:56:46;;;;;;;1.73;1.20;;;12.60;42.40;;;;;;4905186;29;20489;-84
2022/04/20 02:59:12;;;;;;;2.20;1.27;;;12.60;42.40;;;;;;4904628;29;20251;-84
2022/04/20 03:01:37;;;;;;;2.07;1.30;;;12.60;42.60;;;;;;4891844;29;20551;-84
2022/04/20 03:04:03;;;;;;;1.88;1.20;;;12.50;42.60;;;;;;4898479;29;20096;-84
2022/04/20 03:06:29;;;;;;;2.10;1.27;;;12.50;42.60;;;;;;4907570;29;20032;-84
2022/04/20 03:08:55;;;;;;;2.00;1.17;;;12.50;42.60;;;;;;4890287;29;20036;-84
2022/04/20 03:11:22;;;;;;;1.48;1.00;;;12.50;42.80;;;;;;4908442;29;20031;-84
2022/04/20 03:13:48;;;;;;;1.40;1.10;;;12.40;42.70;;;;;;4904111;29;20032;-84
2022/04/20 03:16:14;;;;;;;1.67;1.27;;;12.40;42.80;;;;;;4906732;29;20040;-83
2022/04/20 03:18:40;;;;;;;1.85;1.20;;;12.40;42.90;;;;;;4919143;28;20059;-84
2022/04/20 03:21:06;;;;;;;2.15;1.30;;;12.40;42.90;;;;;;4899761;29;20260;-83
2022/04/20 03:23:32;;;;;;;2.20;1.20;;;12.30;42.90;;;;;;4911743;29;20024;-84
2022/04/20 03:25:58;;;;;;;1.58;1.30;;;12.30;43.00;;;;;;4891246;29;20043;-84
2022/04/20 03:28:24;;;;;;;1.88;1.20;;;12.30;43.10;;;;;;4907022;29;20347;-84
2022/04/20 03:30:50;;;;;;;2.92;1.48;;;12.30;43.30;;;;;;4902551;29;20058;-84
2022/04/20 03:33:16;;;;;;;1.57;1.10;;;12.20;43.10;;;;;;4885500;29;20330;-84
2022/04/20 03:35:43;;;;;;;1.63;1.20;;;12.20;43.20;;;;;;4904492;29;20384;-83
2022/04/20 03:38:09;;;;;;;1.40;1.20;;;12.20;43.40;;;;;;4905157;29;20428;-84
2022/04/20 03:40:35;;;;;;;1.98;1.20;;;12.20;43.40;;;;;;4896132;29;20119;-84
2022/04/20 03:43:02;;;;;;;1.67;1.15;;;12.20;43.40;;;;;;4896879;29;20555;-84
2022/04/20 03:45:27;;;;;;;1.63;1.23;;;12.10;43.40;;;;;;4906140;29;20024;-84
2022/04/20 03:47:53;;;;;;;1.77;1.20;;;12.10;43.50;;;;;;4890394;29;20547;-83
2022/04/20 03:50:19;;;;;;;1.55;1.25;;;12.10;43.50;;;;;;4899749;29;20139;-84
2022/04/20 03:52:45;;;;;;;2.10;1.20;;;12.00;43.50;;;;;;4899433;29;20473;-84
2022/04/20 03:55:11;;;;;;;1.75;1.13;;;12.00;44.40;;;;;;4898113;29;20115;-84
2022/04/20 03:57:37;;;;;;;1.60;1.23;;;12.00;43.80;;;;;;4901734;29;20028;-84
2022/04/20 04:00:04;;;;;;;1.17;1.00;;;12.00;43.90;;;;;;4934211;28;20043;-84
2022/04/20 04:02:30;;;;;;;1.88;1.33;;;11.90;43.90;;;;;;4908231;29;20229;-84
2022/04/20 04:04:56;;;;;;;1.90;1.33;;;11.90;43.80;;;;;;4889757;29;20050;-84
2022/04/20 04:07:22;;;;;;;1.90;1.23;;;11.90;43.90;;;;;;4901204;29;20070;-84
2022/04/20 04:09:47;;;;;;;1.50;1.20;;;11.90;44.00;;;;;;4907446;29;20067;-84
2022/04/20 04:12:14;;;;;;;2.37;1.30;;;11.90;43.70;;;;;;4892788;29;20540;-84
2022/04/20 04:14:40;;;;;;;1.35;1.10;;;11.80;43.90;;;;;;4906481;29;20039;-84
2022/04/20 04:17:06;;;;;;;1.45;1.13;;;11.80;44.00;;;;;;4919991;29;20032;-84
2022/04/20 04:19:35;;;;;;;1.92;1.25;;;11.80;44.10;;;;;;4888047;29;20773;-83
2022/04/20 04:22:02;;;;;;;1.47;1.10;;;11.80;44.40;;;;;;4906349;29;20392;-84
2022/04/20 04:24:37;;;;;;;1.35;1.17;;;11.80;44.20;;;;;;4893226;29;20521;-84
2022/04/20 04:27:03;;;;;;;1.77;1.20;;;11.70;44.90;;;;;;4895359;29;20036;-84
2022/04/20 04:29:31;;;;;;;1.67;1.30;;;11.70;44.30;;;;;;4903224;29;20320;-84
2022/04/20 04:31:56;;;;;;;3.55;1.30;;;11.70;44.30;;;;;;4888972;29;22199;-81
2022/04/20 04:34:22;;;;;;;2.50;1.10;;;11.70;44.30;;;;;;4899090;29;20247;-81
2022/04/20 04:36:48;;;;;;;2.80;1.27;;;11.60;44.40;;;;;;4900939;29;20511;-82
2022/04/20 04:39:14;;;;;;;1.20;1.10;;;11.60;44.50;;;;;;4898154;29;20514;-81
2022/04/20 04:41:42;;;;;;;2.63;1.10;;;11.60;44.50;;;;;;4892523;29;20048;-81
2022/04/20 04:44:08;;;;;;;1.42;1.10;;;11.60;44.70;;;;;;4902514;29;20067;-81
2022/04/20 04:49:18;;;;;;;2.10;1.13;;;11.60;44.70;;;;;;4884068;29;20193;-81
2022/04/20 04:51:43;;;;;;;1.92;1.23;;;11.60;44.80;;;;;;4906135;29;20028;-81
2022/04/20 04:54:09;;;;;;;1.77;1.20;;;11.60;44.80;;;;;;4908986;29;20036;-82
2022/04/20 04:56:35;;;;;;;2.30;1.40;;;11.60;44.70;;;;;;4902096;29;20167;-82
2022/04/20 04:59:01;;;;;;;2.07;1.27;;;11.60;45.00;;;;;;4895401;29;20047;-82
2022/04/20 05:01:26;;;;;;;2.50;1.20;;;11.60;44.90;;;;;;4883691;29;20665;-81
2022/04/20 05:03:55;;;;;;;1.70;1.15;;;11.60;45.00;;;;;;4890552;29;20110;-81
2022/04/20 05:06:21;;;;;;;2.30;1.27;;;11.60;45.20;;;;;;4868516;29;20020;-81
2022/04/20 05:08:47;;;;;;;1.58;1.15;;;11.60;45.10;;;;;;4889495;29;20088;-81
2022/04/20 05:11:12;;;;;;;1.73;1.13;;;11.60;45.30;;;;;;4894967;29;20080;-82
2022/04/20 05:13:38;;;;;;;1.77;1.37;;;11.60;45.40;;;;;;4886558;29;20040;-81
2022/04/20 05:16:04;;;;;;;1.58;1.25;;;11.70;45.50;;;;;;4901099;29;20198;-82
2022/04/20 05:18:30;;;;;;;2.20;1.20;;;11.70;45.40;;;;;;4892854;29;20409;-80
2022/04/20 05:20:55;;;;;;;2.45;1.50;;;11.70;45.50;;;;;;4880776;29;20032;-82
2022/04/20 05:23:21;;;;;;;1.87;1.40;;;11.70;45.80;;;;;;4893324;29;20100;-81
2022/04/20 05:25:47;;;;;;;1.58;1.15;;;11.70;45.80;;;;;;4891140;29;20028;-81
2022/04/20 05:28:13;;;;;;;1.77;1.40;;;11.80;45.50;;;;;;4896886;29;20056;-80
2022/04/20 05:30:39;;;;;;;2.20;1.50;;;11.80;45.60;;;;;;4899115;29;20040;-81
2022/04/20 05:33:04;;;;;;;1.77;1.17;;;11.80;45.60;;;;;;4896090;29;20786;-81
2022/04/20 05:35:30;;;;;;;2.35;1.30;;;11.90;45.80;;;;;;4890550;29;20047;-81
2022/04/20 05:43:24;;;;;;;2.40;1.30;;;12.10;45.80;;;;;;4896100;29;20299;-82
2022/04/20 05:45:51;;;;;;;3.33;1.63;;;12.10;45.80;;;;;;4889051;29;20543;-83
2022/04/20 05:48:16;;;;;;;2.78;1.48;;;12.20;45.90;;;;;;4894311;29;20104;-82
2022/04/20 05:50:43;;;;;;;2.15;1.50;;;12.20;45.70;;;;;;4889515;29;20063;-81
2022/04/20 05:53:09;;;;;;;2.30;1.40;;;12.30;45.90;;;;;;4888729;29;20127;-83
2022/04/20 05:55:35;;;;;;;3.80;1.50;;;12.40;45.80;;;;;;4901418;29;20123;-82
2022/04/20 05:58:01;;;;;;;2.13;1.50;;;12.40;45.80;;;;;;4899278;29;20249;-81
2022/04/20 06:00:27;;;;;;;2.75;1.70;;;12.50;45.70;;;;;;4901863;29;20032;-81
2022/04/20 06:02:54;;;;;;;3.23;1.53;;;12.50;45.90;;;;;;4896600;29;20033;-81
2022/04/20 06:05:21;;;;;;;2.83;1.58;;;12.50;45.80;;;;;;4894104;29;20258;-81
2022/04/20 06:07:47;;;;;;;3.10;1.70;;;12.60;45.90;;;;;;4857125;29;20036;-81
2022/04/20 06:10:13;;;;;;;2.05;1.50;;;12.60;46.10;;;;;;4889390;29;20114;-81
2022/04/20 06:12:39;;;;;;;2.53;1.80;;;12.70;46.00;;;;;;4891574;29;20095;-80
2022/04/20 06:15:08;;;;;;;2.33;1.65;;;12.70;45.80;;;;;;4878151;29;20043;-81
2022/04/20 06:17:35;;;;;;;2.25;1.70;;;12.80;45.90;;;;;;4894652;29;20305;-81
2022/04/20 06:20:01;;;;;;;2.55;1.63;;;12.90;45.90;;;;;;4895078;29;20044;-81
2022/04/20 06:22:27;;;;;;;2.77;1.80;;;12.90;46.00;;;;;;4879671;29;20576;-81
2022/04/20 06:24:53;;;;;;;2.13;1.77;;;12.90;46.00;;;;;;4891318;29;20252;-81
2022/04/20 06:27:18;;;;;;;2.50;1.80;;;13.00;46.00;;;;;;4898518;29;20468;-82
2022/04/20 06:29:44;;;;;;;2.03;1.70;;;13.10;46.00;;;;;;4896898;29;20029;-81
2022/04/20 06:32:10;;;;;;;3.33;1.90;;;13.20;46.10;;;;;;4889448;29;20028;-81
2022/04/20 06:34:36;;;;;;;4.13;1.93;;;13.30;46.20;;;;;;4889620;29;20790;-81
2022/04/20 06:37:05;;;;;;;2.28;1.65;;;13.40;46.20;;;;;;4881965;29;20260;-81
2022/04/20 06:39:31;;;;;;;2.33;1.63;;;13.40;46.00;;;;;;4903946;29;20329;-81
2022/04/20 06:41:57;;;;;;;3.67;2.10;;;13.50;46.00;;;;;;4913636;29;131182;-81
2022/04/20 06:44:22;;;;;;;2.85;1.95;;;13.60;46.00;;;;;;4888055;29;20139;-82
2022/04/20 06:46:48;;;;;;;3.33;2.30;;;13.70;46.10;;;;;;4879833;29;20083;-81
2022/04/20 06:49:14;;;;;;;3.40;2.13;;;13.80;46.00;;;;;;4882895;29;20469;-82
2022/04/20 06:59:53;;;;;;;3.05;2.30;;;14.10;45.90;;;;;;4907216;29;20051;-82
2022/04/20 07:02:21;;;;;;;2.78;2.22;;;14.20;45.90;;;;;;4882300;29;20436;-81
2022/04/20 07:04:46;;;;;;;3.13;2.28;;;14.20;46.00;;;;;;4900358;29;20036;-80
2022/04/20 07:07:12;;;;;;;4.63;2.50;;;14.40;46.00;;;;;;4898026;29;20422;-82
2022/04/20 07:09:38;;;;;;;3.47;2.50;;;14.50;45.90;;;;;;4890459;29;20265;-81
2022/04/20 07:12:04;;;;;;;3.97;2.40;;;14.60;45.90;;;;;;4903701;29;20760;-82
2022/04/20 07:14:30;;;;;;;3.13;2.38;;;14.70;46.20;;;;;;4893003;29;20233;-81
2022/04/20 07:16:55;;;;;;;3.73;2.53;;;14.80;46.10;;;;;;4886354;29;20044;-81
2022/04/20 07:19:22;;;;;;;3.20;2.38;;;14.90;45.90;;;;;;4889494;29;20031;-81
2022/04/20 07:21:48;;;;;;;3.60;2.60;;;15.00;45.90;;;;;;4908478;29;20084;-81
2022/04/20 07:24:13;;;;;;;3.70;2.43;;;15.20;45.90;;;;;;4878834;29;20052;-82
2022/04/20 07:26:39;;;;;;;3.65;2.53;;;15.30;45.90;;;;;;4889414;29;20036;-81
2022/04/20 07:29:04;;;;;;;2.80;2.30;;;15.50;45.90;;;;;;4905759;29;20036;-82
2022/04/20 07:31:30;;;;;;;2.72;2.20;;;15.60;45.90;;;;;;4903362;29;20229;-82
2022/04/20 07:33:55;;;;;;;3.77;2.57;;;15.80;45.90;;;;;;4905767;29;20095;-82
2022/04/20 07:36:21;;;;;;;4.37;2.57;;;16.00;46.00;;;;;;4906479;29;20123;-82
2022/04/20 07:38:48;;;;;;;4.50;2.60;;;16.10;45.80;;;;;;4902596;29;20028;-83
2022/04/20 07:41:15;;;;;;;3.20;2.50;;;16.30;45.70;;;;;;4871453;29;20032;-82
2022/04/20 07:43:40;;;;;;;3.47;2.70;;;16.50;45.70;;;;;;4895798;29;20292;-82
2022/04/20 07:46:06;;;;;;;3.53;2.50;;;16.60;45.60;;;;;;4901723;29;20037;-82
2022/04/20 07:48:32;;;;;;;3.60;2.63;;;16.90;45.50;;;;;;4892999;29;20384;-83
2022/04/20 07:51:00;;;;;;;3.13;2.30;;;17.10;45.40;;;;;;4898433;29;20123;-81
2022/04/20 07:53:26;;;;;;;3.22;2.45;;;17.20;45.10;;;;;;4891976;29;20119;-81
2022/04/20 07:55:52;;;;;;;2.83;2.08;;;17.40;44.60;;;;;;4882210;29;20055;-82
2022/04/20 07:58:18;;;;;;;4.13;2.13;;;17.60;44.20;;;;;;4887257;29;20059;-81
2022/04/20 08:00:44;;;;;;;3.03;2.03;;;17.60;43.90;;;;;;4901710;29;20111;-81
2022/04/20 08:03:19;;;;;;;2.67;1.80;;;17.70;43.80;;;;;;4896988;29;20036;-82
2022/04/20 08:05:52;;;;;;;4.60;1.80;;;17.80;43.80;;;;;;4892723;29;20036;-82
2022/04/20 08:08:19;;;;;;;3.65;1.80;;;17.90;43.70;;;;;;4889713;29;20094;-81
2022/04/20 08:10:45;;;;;;;1.90;1.50;;;18.10;43.90;;;;;;4883073;29;20080;-82
2022/04/20 08:15:55;;;;;;;2.30;1.63;;;18.30;43.60;;;;;;4901044;29;20043;-81
2022/04/20 08:18:22;;;;;;;3.22;1.75;;;18.50;43.30;;;;;;4894051;29;20507;-81
2022/04/20 08:20:48;;;;;;;5.03;1.70;;;18.70;43.20;;;;;;4876215;29;20056;-82
2022/04/20 08:23:14;;;;;;;2.22;1.60;;;18.80;43.80;;;;;;4889935;29;20067;-82
2022/04/20 08:25:41;;;;;;;2.50;1.40;;;19.00;43.10;;;;;;4898698;29;20135;-83
2022/04/20 08:28:08;;;;;;;2.83;1.35;;;19.10;42.90;;;;;;4866608;29;20036;-81
2022/04/20 08:30:35;;;;;;;3.22;1.35;;;19.40;43.00;;;;;;4894844;29;20041;-81
2022/04/20 08:33:01;;;;;;;2.40;1.58;;;19.60;42.90;;;;;;4899634;29;20115;-82
2022/04/20 08:35:27;;;;;;;2.00;1.43;;;19.80;42.40;;;;;;4882643;29;20429;-82
2022/04/20 08:37:52;;;;;;;2.40;1.50;;;20.00;41.90;;;;;;4886288;29;20127;-82
2022/04/20 08:40:18;;;;;;;3.60;1.60;;;20.20;41.80;;;;;;4891438;29;20040;-82
2022/04/20 08:42:45;;;;;;;1.80;1.33;;;20.40;41.50;;;;;;4882915;29;20351;-82
2022/04/20 08:45:13;;;;;;;3.67;1.50;;;20.60;41.20;;;;;;4886340;29;20036;-82
2022/04/20 08:47:40;;;;;;;1.95;1.40;;;20.70;40.90;;;;;;4900215;29;20228;-81
2022/04/20 08:50:08;;;;;;;1.80;1.40;;;20.90;40.40;;;;;;4898871;29;20107;-81
2022/04/20 08:52:39;;;;;;;1.88;1.33;;;20.90;39.90;;;;;;4884750;29;20278;-81
2022/04/20 08:55:06;;;;;;;4.72;1.55;;;21.00;39.90;;;;;;4896216;29;20067;-82
2022/04/20 08:57:33;;;;;;;2.72;1.40;;;21.00;39.00;;;;;;4880649;29;20131;-81
2022/04/20 08:59:59;;;;;;;2.67;1.40;;;21.00;38.80;;;;;;4886173;29;20028;-81
2022/04/20 09:02:25;;;;;;;2.27;1.37;;;20.90;38.50;;;;;;4893724;29;20326;-82
2022/04/20 09:04:55;;;;;;;2.88;1.50;;;20.90;38.20;;;;;;4892889;29;20040;-82
2022/04/20 09:07:20;;;;;;;1.92;1.40;;;20.80;37.90;;;;;;4882260;29;20024;-80
2022/04/20 09:09:46;;;;;;;3.40;1.57;;;20.80;37.90;;;;;;4900996;29;20042;-82
2022/04/20 09:12:19;;;;;;;2.00;1.40;;;20.70;37.90;;;;;;4883492;29;20024;-81
2022/04/20 09:14:50;;;;;;;2.40;1.50;;;20.60;36.90;;;;;;4894857;29;20062;-81
2022/04/20 09:17:21;;;;;;;2.83;1.40;;;20.60;37.50;;;;;;4891944;29;20040;-82
2022/04/20 09:19:51;;;;;;;2.23;1.40;;;20.50;37.60;;;;;;4893575;29;20042;-82
2022/04/20 09:22:22;;;;;;;2.25;1.50;;;20.50;37.80;;;;;;4877746;29;20122;-82
2022/04/20 09:25:10;;;;;;;2.13;1.40;;;20.40;37.70;;;;;;4890440;29;20065;-81
2022/04/20 09:27:40;;;;;;;2.13;1.67;;;20.50;37.30;;;;;;4886870;29;20127;-81
2022/04/20 09:30:12;;;;;;;2.10;1.50;;;20.50;37.70;;;;;;4864630;29;20801;-81
2022/04/20 09:32:38;;;;;;;2.57;1.43;;;20.50;37.30;;;;;;4901552;29;21519;-82
2022/04/20 09:35:16;;;;;;;1.83;1.45;;;20.60;37.60;;;;;;4914381;29;20063;-82
2022/04/20 09:37:43;;;;;;;2.00;1.50;;;20.60;36.70;;;;;;4885868;29;20036;-81
2022/04/20 09:40:11;;;;;;;3.15;1.60;;;20.70;37.20;;;;;;4885242;29;20060;-81
2022/04/20 09:42:39;;;;;;;2.33;1.40;;;20.70;36.90;;;;;;4894142;29;20055;-81
2022/04/20 09:45:07;;;;;;;2.23;1.50;;;20.80;37.20;;;;;;4880929;29;20308;-82
2022/04/20 09:50:26;;;;;;;2.42;1.60;;;21.00;36.80;;;;;;4902790;29;20600;-82
2022/04/20 09:52:55;;;;;;;2.60;1.67;;;21.10;37.20;;;;;;4875439;29;20073;-81
2022/04/20 09:55:35;;;;;;;2.38;1.70;;;21.30;37.40;;;;;;4899914;29;20040;-81
2022/04/20 09:58:19;;;;;;;2.90;1.93;;;21.50;37.30;;;;;;4884875;29;20271;-82
2022/04/20 10:00:54;;;;;;;1.85;1.50;;;21.60;36.80;;;;;;4870344;29;20052;-81
2022/04/20 10:03:24;;;;;;;2.80;1.77;;;21.90;37.20;;;;;;4898892;29;20025;-81
2022/04/20 10:05:50;;;;;;;2.80;1.73;;;22.10;36.80;;;;;;4905735;29;20513;-81
2022/04/20 10:08:17;;;;;;;1.98;1.50;;;22.30;37.00;;;;;;4886329;29;20056;-82
2022/04/20 10:10:44;;;;;;;3.60;1.80;;;22.60;36.90;;;;;;4884452;29;20039;-81
2022/04/20 10:13:10;;;;;;;2.08;1.50;;;22.80;35.60;;;;;;4896987;29;20151;-82
2022/04/20 10:18:25;;;;;;;1.83;1.42;;;23.10;35.00;;;;;;4906014;29;20538;-83
2022/04/20 10:20:57;;;;;;;2.55;1.52;;;23.20;34.50;;;;;;4899444;29;20036;-82
2022/04/20 10:23:24;;;;;;;2.27;1.20;;;23.30;34.70;;;;;;4905501;29;20496;-82
2022/04/20 10:25:51;;;;;;;1.92;1.30;;;23.50;35.10;;;;;;4890168;29;20032;-82
2022/04/20 10:28:32;;;;;;;2.35;1.40;;;23.80;34.70;;;;;;4897421;29;20325;-82
2022/04/20 10:31:30;;;;;;;1.65;1.40;;;23.90;34.20;;;;;;4894258;28;20175;-81
2022/04/20 10:33:56;;;;;;;1.88;1.33;;;24.10;33.20;;;;;;4879317;29;20071;-82
2022/04/20 10:36:30;;;;;;;2.60;1.40;;;24.20;33.40;;;;;;4898569;29;20028;-82
2022/04/20 10:39:25;;;;;;;1.85;1.38;;;24.20;32.60;;;;;;4892281;29;20040;-81
2022/04/20 10:42:12;;;;;;;2.40;1.30;;;24.30;32.50;;;;;;4900833;29;20083;-82
2022/04/20 10:44:50;;;;;;;2.63;1.30;;;24.40;32.30;;;;;;4902892;29;20411;-81
2022/04/20 10:47:22;;;;;;;2.92;1.50;;;24.40;32.50;;;;;;4867631;29;20052;-81
2022/04/20 10:49:53;;;;;;;1.50;1.17;;;24.50;32.40;;;;;;4894945;29;20032;-81
2022/04/20 10:52:29;;;;;;;3.03;1.40;;;24.60;32.60;;;;;;4896883;29;20064;-82
2022/04/20 10:54:56;;;;;;;1.85;1.50;;;24.70;31.90;;;;;;4891147;29;20112;-81
2022/04/20 10:57:42;;;;;;;2.75;1.48;;;24.70;32.40;;;;;;4906819;29;20028;-83
2022/04/20 11:00:20;;;;;;;2.20;1.42;;;24.90;31.40;;;;;;4899857;29;20354;-82
2022/04/20 11:02:51;;;;;;;1.93;1.50;;;25.00;31.40;;;;;;4872678;29;20032;-81
2022/04/20 11:05:24;;;;;;;3.47;1.60;;;25.00;31.50;;;;;;4900731;29;20064;-81
2022/04/20 11:08:12;;;;;;;2.10;1.40;;;25.10;30.80;;;;;;4901313;29;20329;-82
2022/04/20 11:10:43;;;;;;;2.20;1.70;;;25.20;30.80;;;;;;4888293;29;20040;-83
2022/04/20 11:19:02;;;;;;;2.00;1.67;;;25.50;30.70;;;;;;4867031;29;20040;-82
2022/04/20 11:21:29;;;;;;;2.45;1.50;;;25.60;29.70;;;;;;4916135;29;20044;-81
2022/04/20 11:23:59;;;;;;;2.13;1.40;;;25.60;31.30;;;;;;4902492;29;20675;-81
2022/04/20 11:26:35;;;;;;;2.83;1.50;;;25.70;30.00;;;;;;4892474;29;20040;-81
2022/04/20 11:29:08;;;;;;;2.70;1.70;;;25.80;30.00;;;;;;4902369;29;20627;-83
2022/04/20 11:31:42;;;;;;;2.20;1.60;;;25.80;30.00;;;;;;4893902;29;20040;-82
2022/04/20 11:34:11;;;;;;;1.73;1.33;;;25.90;29.90;;;;;;4872756;29;20155;-82
2022/04/20 11:36:46;;;;;;;2.33;1.58;;;26.10;30.30;;;;;;4928417;28;20461;-82
2022/04/20 11:39:13;;;;;;;1.98;1.67;;;26.20;30.00;;;;;;4899399;29;20406;-82
2022/04/20 11:41:48;;;;;;;2.93;1.80;;;26.40;30.20;;;;;;4881648;29;20409;-82
2022/04/20 11:44:26;;;;;;;2.38;1.58;;;26.60;29.90;;;;;;4891776;29;20495;-83
2022/04/20 11:46:58;;;;;;;2.50;2.00;;;26.70;29.30;;;;;;4883343;29;20040;-80
2022/04/20 11:49:36;;;;;;;2.35;1.52;;;26.90;30.20;;;;;;4876717;29;20044;-82
2022/04/20 11:52:06;;;;;;;2.60;2.00;;;27.00;29.10;;;;;;4890794;29;22643;-82
2022/04/20 11:54:33;;;;;;;2.30;1.80;;;27.00;29.30;;;;;;4897983;29;20468;-82
2022/04/20 11:56:58;;;;;;;1.92;1.63;;;27.10;29.40;;;;;;4888068;29;20237;-82
2022/04/20 11:59:24;;;;;;;2.20;1.48;;;27.20;29.50;;;;;;4905130;29;20382;-82
2022/04/20 12:01:51;;;;;;;3.42;1.70;;;27.30;29.20;;;;;;4891143;29;20033;-82
2022/04/20 12:04:27;;;;;;;2.63;1.70;;;27.40;28.90;;;;;;4911948;28;20438;-82
2022/04/20 12:06:58;;;;;;;2.83;1.67;;;27.40;28.60;;;;;;4900213;29;20203;-82
2022/04/20 12:09:36;;;;;;;2.38;1.75;;;27.40;28.40;;;;;;4890819;29;20063;-82
2022/04/20 12:12:07;;;;;;;3.00;1.80;;;27.40;27.90;;;;;;4879192;29;20036;-81
2022/04/20 12:14:35;;;;;;;2.80;1.90;;;27.30;27.60;;;;;;4896387;29;20028;-81
2022/04/20 12:17:21;;;;;;;3.20;1.80;;;27.20;27.50;;;;;;4888509;29;20884;-82
2022/04/20 12:19:47;;;;;;;2.03;1.30;;;27.00;26.80;;;;;;4883362;29;20036;-81
2022/04/20 12:22:15;;;;;;;2.33;1.77;;;26.80;27.50;;;;;;4896238;29;20043;-83
2022/04/20 12:24:43;;;;;;;2.85;1.60;;;26.60;27.40;;;;;;4868174;29;20848;-80
2022/04/20 12:27:21;;;;;;;3.88;2.00;;;26.40;27.00;;;;;;4881676;29;20118;-81
2022/04/20 12:29:58;;;;;;;2.37;1.57;;;26.20;26.70;;;;;;4895489;29;20389;-81
2022/04/20 12:32:25;;;;;;;2.42;1.88;;;26.00;27.50;;;;;;4888614;29;20650;-81
2022/04/20 12:34:59;;;;;;;2.63;1.90;;;25.80;27.20;;;;;;4905851;29;20028;-81
2022/04/20 12:37:31;;;;;;;5.22;1.80;;;25.70;27.40;;;;;;4887505;29;20132;-81
2022/04/20 12:40:17;;;;;;;3.15;2.13;;;25.50;27.70;;;;;;4892505;29;20032;-80
2022/04/20 12:43:05;;;;;;;3.27;2.03;;;25.50;28.00;;;;;;4893041;29;20107;-81
2022/04/20 12:45:34;;;;;;;2.95;1.77;;;25.50;27.80;;;;;;4899296;29;20040;-82
2022/04/20 12:48:07;;;;;;;2.40;1.90;;;25.50;28.30;;;;;;4892085;29;20051;-82
2022/04/20 12:50:43;;;;;;;2.60;1.85;;;25.70;28.60;;;;;;4896819;29;21234;-82
2022/04/20 12:53:09;;;;;;;3.28;1.83;;;25.80;28.40;;;;;;4872079;29;20036;-82
2022/04/20 12:55:40;;;;;;;2.20;1.80;;;26.00;28.50;;;;;;4891912;29;20233;-81
2022/04/20 13:03:43;;;;;;;3.97;2.00;;;26.20;27.90;;;;;;4892696;29;20048;-81
2022/04/20 13:06:10;;;;;;;2.77;2.10;;;26.20;27.90;;;;;;4876190;29;20474;-82
2022/04/20 13:08:46;;;;;;;3.63;2.20;;;26.20;27.70;;;;;;4902952;29;20033;-82
2022/04/20 13:11:13;;;;;;;2.95;1.85;;;26.10;27.40;;;;;;4889484;29;20047;-81
2022/04/20 13:13:39;;;;;;;2.47;2.00;;;26.10;27.80;;;;;;4864894;29;20036;-82
2022/04/20 13:16:08;;;;;;;2.73;1.80;;;26.10;27.70;;;;;;4893035;29;20048;-83
2022/04/20 13:18:35;;;;;;;2.40;1.83;;;26.10;27.90;;;;;;4898667;29;20335;-82
2022/04/20 13:21:01;;;;;;;3.03;1.80;;;26.20;27.90;;;;;;4883891;29;20068;-82
2022/04/20 13:23:27;;;;;;;3.83;2.30;;;26.30;28.20;;;;;;4874545;29;20119;-80
2022/04/20 13:28:36;;;;;;;3.00;1.60;;;26.40;27.90;;;;;;4875011;29;20044;-82
2022/04/20 13:31:02;;;;;;;3.20;1.90;;;26.60;28.30;;;;;;4887325;29;20076;-81
2022/04/20 13:33:28;;;;;;;3.17;2.15;;;26.70;28.40;;;;;;4894527;29;20020;-81